createdAt,value
2018-03-07T00:12:12.985Z,73.63
2018-03-07T00:14:41.211Z,79.73
2018-03-07T00:17:09.411Z,72.73
2018-03-07T00:19:38.546Z,78.07
2018-03-07T00:22:07.503Z,76.63
2018-03-07T00:24:35.700Z,78.77
2018-03-07T00:27:04.069Z,77.67
2018-03-07T00:29:33.086Z,78.53
2018-03-07T00:32:01.438Z,75.60
2018-03-07T00:34:29.776Z,74.33
2018-03-07T00:36:57.974Z,74.10
2018-03-07T00:39:26.533Z,74.40
2018-03-07T00:41:54.707Z,75.77
2018-03-07T00:44:22.915Z,75.40
2018-03-07T00:46:51.927Z,76.50
2018-03-07T00:49:20.978Z,77.10
2018-03-07T00:51:49.257Z,79.03
2018-03-07T00:54:17.538Z,73.93
2018-03-07T00:56:45.728Z,78.43
2018-03-07T00:59:14.751Z,72.60
2018-03-07T01:01:42.918Z,81.37
2018-03-07T01:04:11.123Z,79.17
2018-03-07T01:06:39.338Z,80.07
2018-03-07T01:09:07.542Z,78.77
2018-03-07T01:11:35.752Z,78.90
2018-03-07T01:14:04.050Z,82.40
2018-03-07T01:16:32.234Z,79.13
2018-03-07T01:19:00.438Z,77.80
2018-03-07T01:21:28.619Z,75.93
2018-03-07T01:23:56.833Z,79.07
2018-03-07T01:26:25.026Z,76.67
2018-03-07T01:28:53.286Z,77.93
2018-03-07T01:31:21.480Z,78.97
2018-03-07T01:33:49.791Z,74.90
2018-03-07T01:36:18.062Z,77.63
2018-03-07T01:38:46.305Z,77.27
2018-03-07T01:41:14.504Z,81.10
2018-03-07T01:43:42.728Z,84.37
2018-03-07T01:46:10.913Z,76.77
2018-03-07T01:48:39.921Z,74.80
2018-03-07T01:51:09.170Z,78.17
2018-03-07T01:53:37.414Z,80.27
2018-03-07T01:56:05.627Z,80.83
2018-03-07T01:58:33.835Z,79.13
2018-03-07T02:01:02.810Z,82.10
2018-03-07T02:03:31.003Z,81.20
2018-03-07T02:05:59.188Z,80.80
2018-03-07T02:08:28.129Z,80.27
2018-03-07T02:10:56.388Z,81.23
2018-03-07T02:13:24.560Z,78.27
2018-03-07T02:15:52.945Z,80.53
2018-03-07T02:18:21.934Z,79.67
2018-03-07T02:20:50.202Z,79.63
2018-03-07T02:23:18.389Z,80.00
2018-03-07T02:25:46.574Z,77.50
2018-03-07T02:28:14.771Z,76.80
2018-03-07T02:30:42.971Z,81.93
2018-03-07T02:33:11.247Z,85.50
2018-03-07T02:35:39.422Z,82.37
2018-03-07T02:38:07.691Z,83.27
2018-03-07T02:40:36.004Z,81.27
2018-03-07T02:43:04.247Z,78.13
2018-03-07T02:45:32.453Z,81.40
2018-03-07T02:48:00.670Z,83.20
2018-03-07T02:50:28.947Z,81.90
2018-03-07T02:52:58.904Z,79.77
2018-03-07T02:55:27.099Z,81.00
2018-03-07T02:57:55.306Z,80.67
2018-03-07T03:00:24.413Z,82.33
2018-03-07T03:02:52.774Z,77.80
2018-03-07T03:05:20.965Z,82.93
2018-03-07T03:07:49.938Z,77.87
2018-03-07T03:10:18.186Z,79.70
2018-03-07T03:12:46.453Z,82.37
2018-03-07T03:15:14.678Z,87.60
2018-03-07T03:17:43.667Z,81.20
2018-03-07T03:20:11.895Z,84.90
2018-03-07T03:22:40.094Z,87.57
2018-03-07T03:25:08.371Z,85.67
2018-03-07T03:27:36.647Z,83.70
2018-03-07T03:30:04.837Z,85.80
2018-03-07T03:32:33.053Z,81.07
2018-03-07T03:35:01.245Z,88.47
2018-03-07T03:37:29.468Z,85.07
2018-03-07T03:39:58.488Z,84.90
2018-03-07T03:42:27.449Z,85.80
2018-03-07T03:44:56.549Z,86.70
2018-03-07T03:47:25.485Z,88.57
2018-03-07T03:49:53.720Z,82.13
2018-03-07T03:52:22.782Z,85.17
2018-03-07T03:54:51.001Z,81.77
2018-03-07T03:57:19.312Z,83.00
2018-03-07T03:59:47.530Z,88.30
2018-03-07T04:02:16.782Z,91.30
2018-03-07T04:04:44.952Z,88.10
2018-03-07T04:07:13.250Z,88.23
2018-03-07T04:09:41.503Z,89.63
2018-03-07T04:12:09.678Z,90.30
2018-03-07T04:14:37.866Z,83.40
2018-03-07T04:17:06.082Z,83.13
2018-03-07T04:19:34.300Z,89.03
2018-03-07T04:22:02.464Z,85.97
2018-03-07T04:24:30.710Z,85.70
2018-03-07T04:26:58.916Z,86.03
2018-03-07T04:29:27.165Z,80.43
2018-03-07T04:31:55.378Z,88.90
2018-03-07T04:34:23.663Z,90.67
2018-03-07T04:36:51.970Z,86.10
2018-03-07T04:39:20.979Z,85.67
2018-03-07T04:41:49.185Z,85.07
2018-03-07T04:44:17.423Z,84.87
2018-03-07T04:46:45.612Z,84.90
2018-03-07T04:49:13.895Z,81.73
2018-03-07T04:51:42.095Z,87.20
2018-03-07T04:54:10.387Z,84.37
2018-03-07T04:56:38.697Z,87.93
2018-03-07T04:59:06.875Z,84.47
2018-03-07T05:01:35.057Z,89.90
2018-03-07T05:04:03.241Z,89.37
2018-03-07T05:06:31.662Z,88.73
2018-03-07T05:08:59.861Z,95.03
2018-03-07T05:11:28.035Z,94.10
2018-03-07T05:13:56.986Z,93.70
2018-03-07T05:16:25.200Z,89.53
2018-03-07T05:18:54.172Z,93.63
2018-03-07T05:21:22.439Z,88.10
2018-03-07T05:23:50.623Z,84.33
2018-03-07T05:26:18.825Z,88.50
2018-03-07T05:28:47.358Z,90.87
2018-03-07T05:31:15.560Z,96.47
2018-03-07T05:33:44.526Z,93.37
2018-03-07T05:36:12.730Z,94.90
2018-03-07T05:38:41.688Z,100.37
2018-03-07T05:41:09.871Z,96.70
2018-03-07T05:43:38.097Z,97.83
2018-03-07T05:46:06.374Z,98.83
2018-03-07T05:48:34.656Z,97.80
2018-03-07T05:51:02.926Z,96.93
2018-03-07T05:53:31.239Z,101.23
2018-03-07T05:55:59.456Z,101.40
2018-03-07T05:58:27.712Z,100.50
2018-03-07T06:00:56.796Z,103.00
2018-03-07T06:03:25.776Z,101.53
2018-03-07T06:05:53.968Z,99.57
2018-03-07T06:08:22.945Z,99.20
2018-03-07T06:10:51.999Z,109.23
2018-03-07T06:13:20.728Z,95.17
2018-03-07T06:15:48.963Z,103.77
2018-03-07T06:18:17.241Z,100.90
2018-03-07T06:20:45.550Z,104.53
2018-03-07T06:23:13.735Z,106.50
2018-03-07T06:25:41.915Z,109.37
2018-03-07T06:28:10.150Z,104.37
2018-03-07T06:30:38.411Z,112.07
2018-03-07T06:33:06.732Z,109.37
2018-03-07T06:35:34.966Z,112.10
2018-03-07T06:38:03.172Z,113.40
2018-03-07T06:40:31.435Z,112.77
2018-03-07T06:42:59.715Z,110.33
2018-03-07T06:45:27.937Z,108.47
2018-03-07T06:47:56.186Z,108.70
2018-03-07T06:50:24.416Z,109.83
2018-03-07T06:52:52.649Z,108.33
2018-03-07T06:55:21.648Z,108.10
2018-03-07T06:57:49.834Z,112.23
2018-03-07T07:00:18.120Z,113.97
2018-03-07T07:02:46.372Z,116.87
2018-03-07T07:05:14.601Z,116.10
2018-03-07T07:07:42.810Z,110.97
2018-03-07T07:10:11.785Z,117.67
2018-03-07T07:12:40.752Z,116.33
2018-03-07T07:15:09.013Z,113.87
2018-03-07T07:17:37.273Z,111.93
2018-03-07T07:20:05.479Z,105.43
2018-03-07T07:22:33.948Z,115.23
2018-03-07T07:25:03.064Z,121.57
2018-03-07T07:27:31.273Z,116.17
2018-03-07T07:29:59.489Z,124.47
2018-03-07T07:32:27.808Z,119.40
2018-03-07T07:34:56.879Z,115.77
2018-03-07T07:37:25.868Z,120.80
2018-03-07T07:39:54.075Z,116.80
2018-03-07T07:42:22.280Z,108.70
2018-03-07T07:44:50.493Z,126.60
2018-03-07T07:47:18.722Z,117.20
2018-03-07T07:49:47.005Z,120.23
2018-03-07T07:52:15.273Z,111.70
2018-03-07T07:54:43.490Z,120.33
2018-03-07T07:57:11.766Z,115.67
2018-03-07T07:59:39.952Z,120.50
2018-03-07T08:02:08.998Z,122.53
2018-03-07T08:04:37.352Z,116.67
2018-03-07T08:07:05.656Z,113.37
2018-03-07T08:09:33.879Z,120.50
2018-03-07T08:12:02.921Z,113.07
2018-03-07T08:14:31.236Z,113.30
2018-03-07T08:16:59.528Z,115.60
2018-03-07T08:19:28.242Z,110.87
2018-03-07T08:21:58.099Z,118.20
2018-03-07T08:24:26.346Z,116.17
2018-03-07T08:26:54.569Z,112.33
2018-03-07T08:29:23.562Z,107.60
2018-03-07T08:31:51.837Z,118.90
2018-03-07T08:34:20.805Z,119.10
2018-03-07T08:36:49.067Z,112.23
2018-03-07T08:39:17.359Z,112.07
2018-03-07T08:41:45.656Z,113.43
2018-03-07T08:44:13.966Z,112.37
2018-03-07T08:46:42.290Z,116.20
2018-03-07T08:49:10.574Z,113.57
2018-03-07T08:51:39.552Z,113.47
2018-03-07T08:54:07.884Z,117.63
2018-03-07T08:56:40.963Z,111.00
2018-03-07T09:02:35.081Z,106.10
2018-03-07T09:05:04.369Z,115.60
2018-03-07T09:07:33.734Z,111.07
2018-03-07T09:13:12.971Z,94.33
2018-03-07T09:15:42.172Z,114.97
2018-03-07T09:18:10.428Z,117.93
2018-03-07T09:23:35.890Z,112.10
2018-03-07T09:26:05.065Z,109.77
2018-03-07T09:28:33.482Z,115.37
2018-03-07T09:31:01.927Z,115.07
2018-03-07T09:33:31.224Z,86.83
2018-03-07T09:36:01.224Z,104.73
2018-03-07T09:38:30.063Z,113.63
2018-03-07T09:40:58.869Z,114.60
2018-03-07T09:43:27.314Z,106.23
2018-03-07T09:45:57.632Z,113.17
2018-03-07T09:48:27.034Z,111.73
2018-03-07T09:50:56.859Z,110.10
2018-03-07T09:56:50.457Z,113.00
2018-03-07T09:59:21.928Z,114.07
2018-03-07T10:01:51.365Z,116.87
2018-03-07T10:04:22.698Z,111.50
2018-03-07T10:09:31.253Z,108.07
2018-03-07T10:11:59.508Z,109.87
2018-03-07T10:14:27.972Z,107.60
2018-03-07T10:16:56.162Z,98.87
2018-03-07T10:19:24.358Z,95.47
2018-03-07T10:21:53.399Z,106.57
2018-03-07T10:24:21.597Z,111.80
2018-03-07T10:26:49.918Z,101.63
2018-03-07T10:29:18.155Z,108.33
2018-03-07T10:31:47.425Z,112.50
2018-03-07T10:34:15.663Z,105.70
2018-03-07T10:36:44.660Z,112.43
2018-03-07T10:39:13.732Z,111.20
2018-03-07T10:41:41.955Z,114.40
2018-03-07T10:44:10.166Z,107.27
2018-03-07T10:46:38.406Z,104.60
2018-03-07T10:49:06.648Z,100.53
2018-03-07T10:51:35.088Z,100.03
2018-03-07T10:54:03.473Z,106.93
2018-03-07T10:56:31.800Z,106.27
2018-03-07T10:59:00.320Z,107.50
2018-03-07T11:01:28.566Z,112.93
2018-03-07T11:03:56.749Z,104.17
2018-03-07T11:06:25.355Z,97.57
2018-03-07T11:08:53.569Z,101.30
2018-03-07T11:11:22.635Z,105.13
2018-03-07T11:13:50.891Z,99.73
2018-03-07T11:16:19.142Z,94.43
2018-03-07T11:18:47.323Z,97.67
2018-03-07T11:21:15.568Z,95.87
2018-03-07T11:23:43.813Z,94.97
2018-03-07T11:26:12.134Z,97.30
2018-03-07T11:28:40.556Z,91.33
2018-03-07T11:31:09.043Z,97.47
2018-03-07T11:33:37.372Z,97.23
2018-03-07T11:36:05.590Z,91.87
2018-03-07T11:38:33.814Z,99.77
2018-03-07T11:41:02.201Z,91.33
2018-03-07T11:43:30.591Z,98.80
2018-03-07T11:45:58.825Z,95.80
2018-03-07T11:48:27.761Z,83.70
2018-03-07T11:50:55.969Z,89.30
2018-03-07T11:53:24.243Z,97.20
2018-03-07T11:55:52.415Z,92.10
2018-03-07T11:58:21.252Z,90.60
2018-03-07T12:00:49.486Z,86.90
2018-03-07T12:03:17.698Z,89.97
2018-03-07T12:05:45.940Z,84.27
2018-03-07T12:08:14.153Z,90.07
2018-03-07T12:10:42.402Z,81.50
2018-03-07T12:13:11.443Z,84.03
2018-03-07T12:15:39.704Z,82.40
2018-03-07T12:18:08.801Z,82.80
2018-03-07T12:20:37.046Z,80.00
2018-03-07T12:23:06.017Z,87.63
2018-03-07T12:25:35.027Z,77.60
2018-03-07T12:28:04.036Z,85.03
2018-03-07T12:30:32.295Z,82.87
2018-03-07T12:33:01.629Z,82.43
2018-03-07T12:35:29.808Z,94.07
2018-03-07T12:37:58.075Z,87.77
2018-03-07T12:40:26.352Z,87.10
2018-03-07T12:42:54.627Z,91.40
2018-03-07T12:45:22.883Z,87.00
2018-03-07T12:47:51.073Z,89.10
2018-03-07T12:50:19.255Z,79.07
2018-03-07T12:52:47.448Z,87.23
2018-03-07T12:55:16.173Z,88.90
2018-03-07T12:57:44.502Z,86.60
2018-03-07T13:00:12.790Z,87.33
2018-03-07T13:02:41.877Z,85.23
2018-03-07T13:05:10.110Z,92.37
2018-03-07T13:07:38.420Z,80.10
2018-03-07T13:10:19.334Z,72.80
2018-03-07T13:12:48.656Z,85.80
2018-03-07T13:15:17.121Z,85.50
2018-03-07T13:17:46.251Z,68.70
2018-03-07T13:20:14.591Z,53.53
2018-03-07T13:22:43.599Z,74.63
2018-03-07T13:25:11.895Z,75.50
2018-03-07T13:27:40.134Z,81.37
2018-03-07T13:30:09.306Z,82.70
2018-03-07T13:32:37.517Z,77.67
2018-03-07T13:35:05.792Z,85.20
2018-03-07T13:37:34.011Z,81.97
2018-03-07T13:40:02.277Z,75.13
2018-03-07T13:42:30.822Z,77.07
2018-03-07T13:44:59.095Z,74.00
2018-03-07T13:47:27.579Z,79.27
2018-03-07T13:49:55.886Z,79.50
2018-03-07T13:52:24.146Z,83.20
2018-03-07T13:54:52.335Z,83.37
2018-03-07T13:57:24.967Z,76.20
2018-03-07T14:00:02.923Z,71.80
2018-03-07T14:02:34.629Z,75.80
2018-03-07T14:05:04.360Z,77.53
2018-03-07T14:07:35.172Z,79.70
2018-03-07T14:10:06.132Z,76.63
2018-03-07T14:15:58.004Z,66.53
2018-03-07T14:24:24.310Z,77.30
2018-03-07T14:26:58.371Z,75.87
2018-03-07T14:29:26.596Z,78.27
2018-03-07T14:31:55.383Z,72.63
2018-03-07T14:34:23.588Z,75.20
2018-03-07T14:36:51.900Z,80.13
2018-03-07T14:45:20.176Z,74.97
2018-03-07T14:47:48.782Z,79.83
2018-03-07T14:50:17.367Z,78.03
2018-03-07T14:52:45.708Z,73.83
2018-03-07T14:55:14.770Z,80.80
2018-03-07T14:57:43.230Z,77.77
2018-03-07T15:00:11.679Z,77.93
2018-03-07T15:02:39.899Z,73.20
2018-03-07T15:19:56.853Z,55.50
2018-03-07T15:22:34.324Z,69.90
2018-03-07T15:25:02.572Z,66.60
2018-03-07T15:27:31.735Z,69.63
2018-03-07T15:30:00.123Z,64.63
2018-03-07T15:38:13.797Z,67.33
2018-03-07T15:57:53.756Z,59.17
2018-03-07T16:00:22.591Z,58.70
2018-03-07T16:02:51.655Z,61.53
2018-03-07T16:05:20.938Z,65.33
2018-03-07T16:07:49.263Z,68.50
2018-03-07T16:10:17.474Z,68.23
2018-03-07T16:12:45.648Z,65.67
2018-03-07T16:15:13.869Z,71.20
2018-03-07T16:17:42.828Z,70.07
2018-03-07T16:20:11.029Z,64.17
2018-03-07T16:22:40.295Z,69.43
2018-03-07T16:25:09.789Z,69.00
2018-03-07T16:27:38.437Z,68.90
2018-03-07T16:30:06.867Z,68.17
2018-03-07T16:33:02.702Z,66.17
2018-03-07T16:38:32.944Z,66.07
2018-03-07T16:41:05.353Z,64.50
2018-03-07T16:43:55.108Z,64.97
2018-03-07T16:46:23.432Z,63.87
2018-03-07T16:48:51.923Z,66.27
2018-03-07T16:51:20.213Z,68.53
2018-03-07T16:53:48.731Z,69.33
2018-03-07T16:56:17.255Z,66.70
2018-03-07T16:58:46.286Z,73.10
2018-03-07T17:01:14.526Z,72.63
2018-03-07T17:03:42.821Z,72.80
2018-03-07T17:12:52.857Z,64.90
2018-03-07T17:15:23.432Z,54.53
2018-03-07T17:17:51.887Z,53.63
2018-03-07T17:23:29.643Z,52.80
2018-03-07T17:25:58.223Z,51.13
2018-03-07T17:28:26.468Z,50.83
2018-03-07T17:30:54.740Z,45.90
2018-03-07T17:33:23.117Z,45.63
2018-03-07T17:35:51.337Z,49.67
2018-03-07T17:38:19.587Z,47.27
2018-03-07T17:40:47.816Z,45.43
2018-03-07T17:43:16.237Z,43.23
2018-03-07T17:45:44.565Z,43.70
2018-03-07T17:48:13.646Z,44.13
2018-03-07T17:50:42.994Z,45.50
2018-03-07T17:53:11.290Z,44.77
2018-03-07T17:55:39.595Z,46.00
2018-03-07T17:58:07.804Z,46.30
2018-03-07T18:00:36.150Z,45.90
2018-03-07T18:03:05.146Z,42.77
2018-03-07T18:05:34.124Z,42.80
2018-03-07T18:08:02.357Z,45.97
2018-03-07T18:10:30.618Z,47.37
2018-03-07T18:12:58.904Z,47.53
2018-03-07T18:15:27.116Z,50.47
2018-03-07T18:17:55.484Z,52.07
2018-03-07T18:20:23.681Z,51.07
2018-03-07T18:22:52.255Z,48.90
2018-03-07T18:25:20.620Z,50.30
2018-03-07T18:27:48.901Z,50.80
2018-03-07T18:30:17.328Z,48.63
2018-03-07T18:32:45.597Z,49.70
2018-03-07T18:35:14.046Z,48.90
2018-03-07T18:37:42.442Z,47.67
2018-03-07T18:40:10.753Z,48.80
2018-03-07T18:42:39.022Z,46.70
2018-03-07T18:45:07.845Z,47.83
2018-03-07T18:47:36.079Z,45.20
2018-03-07T18:50:04.330Z,48.40
2018-03-07T18:52:33.277Z,44.47
2018-03-07T18:55:01.866Z,45.10
2018-03-07T18:57:30.055Z,45.47
2018-03-07T18:59:59.115Z,37.73
2018-03-07T19:02:27.327Z,46.17
2018-03-07T19:04:56.375Z,46.23
2018-03-07T19:07:24.692Z,47.47
2018-03-07T19:09:52.897Z,47.60
2018-03-07T19:12:21.885Z,46.53
2018-03-07T19:14:50.935Z,49.20
2018-03-07T19:17:19.289Z,49.53
2018-03-07T19:19:47.824Z,48.87
2018-03-07T19:22:16.053Z,47.10
2018-03-07T19:24:45.151Z,47.43
2018-03-07T19:27:13.464Z,49.33
2018-03-07T19:29:42.442Z,48.10
2018-03-07T19:32:11.507Z,49.80
2018-03-07T19:34:39.697Z,52.20
2018-03-07T19:37:08.150Z,53.60
2018-03-07T19:39:36.536Z,53.80
2018-03-07T19:42:04.822Z,77.60
2018-03-07T19:44:33.079Z,67.23
2018-03-07T19:47:01.301Z,56.60
2018-03-07T19:49:29.587Z,52.57
2018-03-07T19:51:59.415Z,52.00
2018-03-07T19:54:27.671Z,57.20
2018-03-07T19:56:56.742Z,54.57
2018-03-07T19:59:25.046Z,58.63
2018-03-07T20:01:54.008Z,86.73
2018-03-07T20:04:22.328Z,60.90
2018-03-07T20:06:50.612Z,59.40
2018-03-07T20:09:18.970Z,60.37
2018-03-07T20:11:48.056Z,60.80
2018-03-07T20:14:17.867Z,55.83
2018-03-07T20:16:46.999Z,48.10
2018-03-07T20:19:15.197Z,53.07
2018-03-07T20:21:43.452Z,51.80
2018-03-07T20:24:11.768Z,48.60
2018-03-07T20:26:39.983Z,51.07
2018-03-07T20:29:08.206Z,49.50
2018-03-07T20:31:36.427Z,50.87
2018-03-07T20:34:04.753Z,49.67
2018-03-07T20:36:33.007Z,48.33
2018-03-07T20:39:01.226Z,50.57
2018-03-07T20:41:29.444Z,54.57
2018-03-07T20:43:57.654Z,49.83
2018-03-07T20:46:25.990Z,53.00
2018-03-07T20:48:54.182Z,50.70
2018-03-07T20:51:23.321Z,49.93
2018-03-07T20:53:51.585Z,53.90
2018-03-07T20:56:19.856Z,54.47
2018-03-07T20:58:48.171Z,55.47
2018-03-07T21:01:16.420Z,53.87
2018-03-07T21:03:44.853Z,55.73
2018-03-07T21:06:13.842Z,57.00
2018-03-07T21:08:42.839Z,57.87
2018-03-07T21:11:11.118Z,58.43
2018-03-07T21:13:39.363Z,56.30
2018-03-07T21:16:07.616Z,53.83
2018-03-07T21:18:36.602Z,56.83
2018-03-07T21:21:04.808Z,56.73
2018-03-07T21:23:33.016Z,54.93
2018-03-07T21:26:01.264Z,58.07
2018-03-07T21:28:29.602Z,59.20
2018-03-07T21:30:59.253Z,59.53
2018-03-07T21:33:27.913Z,57.00
2018-03-07T21:35:56.142Z,55.40
2018-03-07T21:38:24.367Z,58.20
2018-03-07T21:40:52.688Z,58.13
2018-03-07T21:43:20.923Z,61.17
2018-03-07T21:45:49.181Z,56.73
2018-03-07T21:48:17.407Z,60.17
2018-03-07T21:50:45.942Z,58.23
2018-03-07T21:53:14.285Z,58.00
2018-03-07T21:55:42.524Z,57.27
2018-03-07T21:58:10.783Z,58.07
2018-03-07T22:00:38.973Z,59.53
2018-03-07T22:03:08.107Z,62.50
2018-03-07T22:05:36.387Z,57.90
2018-03-07T22:08:04.574Z,61.60
2018-03-07T22:10:32.850Z,59.27
2018-03-07T22:13:01.817Z,59.00
2018-03-07T22:15:30.934Z,63.50
2018-03-07T22:17:59.348Z,64.33
2018-03-07T22:20:28.742Z,59.20
2018-03-07T22:22:57.055Z,56.20
2018-03-07T22:25:27.815Z,59.33
2018-03-07T22:27:56.888Z,61.57
2018-03-07T22:30:25.274Z,60.13
2018-03-07T22:32:53.469Z,63.43
2018-03-07T22:35:21.733Z,60.93
2018-03-07T22:37:49.951Z,61.10
2018-03-07T22:40:18.195Z,67.33
2018-03-07T22:42:47.226Z,63.40
2018-03-07T22:45:15.436Z,64.10
2018-03-07T22:47:43.799Z,65.47
2018-03-07T22:50:12.130Z,62.03
2018-03-07T22:52:40.343Z,61.83
2018-03-07T22:55:08.614Z,66.50
2018-03-07T22:57:37.186Z,63.43
2018-03-07T23:00:05.837Z,65.20
2018-03-07T23:02:34.019Z,71.77
2018-03-07T23:05:02.282Z,65.87
2018-03-07T23:07:30.506Z,68.77
2018-03-07T23:09:59.445Z,66.63
2018-03-07T23:12:27.891Z,66.30
2018-03-07T23:14:56.078Z,66.70
2018-03-07T23:17:24.388Z,66.43
2018-03-07T23:19:52.632Z,65.60
2018-03-07T23:22:20.813Z,63.60
2018-03-07T23:24:50.129Z,65.40
2018-03-07T23:27:19.126Z,63.13
2018-03-07T23:29:47.345Z,67.97
2018-03-07T23:32:15.538Z,63.60
2018-03-07T23:34:43.761Z,67.30
2018-03-07T23:37:12.094Z,63.90
2018-03-07T23:39:40.300Z,61.70
2018-03-07T23:42:08.639Z,63.67
2018-03-07T23:44:36.845Z,59.20
2018-03-07T23:47:05.094Z,64.37
2018-03-07T23:49:33.303Z,64.53
2018-03-07T23:52:01.543Z,62.50
2018-03-07T23:54:30.523Z,65.67
2018-03-07T23:56:58.735Z,63.70
2018-03-07T23:59:27.111Z,62.80
